createdAt,value
2019-05-30T00:00:08.884Z,13.53
2019-05-30T00:00:53.972Z,13.56
2019-05-30T00:01:54.158Z,13.53
2019-05-30T00:02:53.929Z,13.57
2019-05-30T00:03:53.967Z,13.52
2019-05-30T00:04:54.011Z,13.47
2019-05-30T00:05:54.189Z,13.42
2019-05-30T00:06:54.156Z,13.42
2019-05-30T00:07:54.041Z,13.35
2019-05-30T00:08:52.770Z,13.31
2019-05-30T00:09:52.792Z,13.33
2019-05-30T00:10:52.743Z,13.30
2019-05-30T00:11:52.738Z,13.31
2019-05-30T00:12:52.719Z,13.27
2019-05-30T00:13:52.708Z,13.33
2019-05-30T00:14:52.705Z,13.20
2019-05-30T00:15:52.705Z,13.16
2019-05-30T00:16:52.684Z,13.33
2019-05-30T00:17:52.673Z,13.35
2019-05-30T00:18:52.655Z,13.31
2019-05-30T00:19:52.647Z,13.30
2019-05-30T00:20:52.642Z,13.28
2019-05-30T00:21:52.625Z,13.35
2019-05-30T00:22:52.616Z,13.31
2019-05-30T00:23:52.597Z,13.39
2019-05-30T00:24:52.596Z,13.37
2019-05-30T00:25:52.574Z,13.33
2019-05-30T00:26:52.574Z,13.38
2019-05-30T00:27:52.549Z,13.38
2019-05-30T00:28:52.540Z,13.28
2019-05-30T00:29:52.529Z,13.16
2019-05-30T00:30:52.518Z,13.15
2019-05-30T00:31:52.506Z,13.04
2019-05-30T00:32:52.495Z,13.00
2019-05-30T00:33:52.492Z,13.01
2019-05-30T00:34:52.470Z,13.05
2019-05-30T00:35:52.470Z,13.11
2019-05-30T00:36:52.446Z,13.08
2019-05-30T00:37:52.444Z,13.01
2019-05-30T00:38:52.426Z,13.08
2019-05-30T00:39:52.413Z,13.04
2019-05-30T00:40:52.402Z,13.00
2019-05-30T00:41:52.390Z,13.09
2019-05-30T00:42:52.384Z,13.04
2019-05-30T00:43:52.383Z,13.03
2019-05-30T00:44:52.370Z,13.03
2019-05-30T00:45:52.343Z,13.05
2019-05-30T00:46:52.371Z,13.13
2019-05-30T00:47:52.332Z,13.15
2019-05-30T00:48:52.312Z,13.27
2019-05-30T00:49:52.350Z,13.31
2019-05-30T00:51:00.436Z,13.31
2019-05-30T00:52:33.958Z,13.33
2019-05-30T00:53:33.936Z,13.23
2019-05-30T00:55:15.587Z,13.18
2019-05-30T00:56:15.574Z,13.28
2019-05-30T00:57:15.567Z,13.18
2019-05-30T00:58:15.552Z,13.11
2019-05-30T00:59:15.546Z,13.22
2019-05-30T01:00:15.537Z,13.11
2019-05-30T01:01:15.527Z,13.01
2019-05-30T01:02:15.508Z,12.97
2019-05-30T01:03:15.494Z,12.93
2019-05-30T01:04:22.687Z,12.72
2019-05-30T01:05:58.791Z,12.67
2019-05-30T01:06:58.929Z,12.61
2019-05-30T01:07:58.845Z,12.64
2019-05-30T01:08:59.094Z,12.57
2019-05-30T01:09:59.156Z,12.62
2019-05-30T01:10:58.994Z,12.54
2019-05-30T01:11:59.129Z,12.55
2019-05-30T01:12:59.933Z,12.50
2019-05-30T01:13:58.964Z,12.53
2019-05-30T01:14:58.930Z,12.53
2019-05-30T01:15:58.964Z,12.37
2019-05-30T01:16:59.002Z,12.22
2019-05-30T01:17:59.032Z,12.20
2019-05-30T01:18:59.057Z,12.15
2019-05-30T01:19:59.069Z,12.09
2019-05-30T01:20:59.137Z,12.21
2019-05-30T01:21:59.137Z,12.32
2019-05-30T01:22:59.160Z,12.27
2019-05-30T01:23:59.286Z,12.29
2019-05-30T01:24:59.168Z,12.21
2019-05-30T01:25:59.303Z,12.24
2019-05-30T01:26:59.188Z,12.18
2019-05-30T01:27:59.466Z,12.22
2019-05-30T01:28:59.329Z,12.22
2019-05-30T01:29:59.378Z,12.15
2019-05-30T01:31:03.151Z,12.15
2019-05-30T01:31:59.439Z,12.10
2019-05-30T01:32:59.562Z,12.12
2019-05-30T01:33:59.453Z,12.10
2019-05-30T01:34:59.593Z,12.21
2019-05-30T01:35:59.435Z,12.29
2019-05-30T01:36:59.812Z,12.37
2019-05-30T01:37:59.570Z,12.37
2019-05-30T01:38:59.340Z,12.36
2019-05-30T01:39:58.274Z,12.37
2019-05-30T01:40:58.269Z,12.24
2019-05-30T01:41:58.247Z,12.35
2019-05-30T01:42:58.231Z,12.40
2019-05-30T01:43:58.225Z,12.36
2019-05-30T01:44:58.224Z,12.40
2019-05-30T01:45:58.217Z,12.39
2019-05-30T01:46:58.262Z,12.37
2019-05-30T01:47:58.254Z,12.39
2019-05-30T01:48:58.231Z,12.37
2019-05-30T01:49:58.322Z,12.42
2019-05-30T01:50:58.344Z,12.50
2019-05-30T01:51:58.399Z,12.50
2019-05-30T01:52:58.469Z,12.54
2019-05-30T01:53:58.378Z,12.55
2019-05-30T01:54:58.544Z,12.55
2019-05-30T01:55:58.549Z,12.50
2019-05-30T01:56:58.460Z,12.43
2019-05-30T01:57:58.699Z,12.37
2019-05-30T01:58:58.655Z,12.37
2019-05-30T01:59:58.696Z,12.37
2019-05-30T02:00:58.744Z,12.21
2019-05-30T02:01:58.903Z,12.15
2019-05-30T02:02:58.882Z,12.17
2019-05-30T02:03:59.093Z,12.24
2019-05-30T02:04:58.839Z,12.17
2019-05-30T02:05:58.911Z,12.18
2019-05-30T02:06:59.232Z,12.09
2019-05-30T02:07:59.013Z,12.15
2019-05-30T02:08:59.025Z,12.12
2019-05-30T02:09:59.076Z,12.10
2019-05-30T02:10:59.121Z,12.17
2019-05-30T02:11:59.226Z,12.17
2019-05-30T02:12:59.213Z,12.13
2019-05-30T02:13:57.888Z,12.27
2019-05-30T02:14:57.899Z,12.20
2019-05-30T02:15:57.868Z,12.17
2019-05-30T02:16:57.862Z,12.24
2019-05-30T02:17:57.861Z,12.24
2019-05-30T02:18:57.836Z,12.12
2019-05-30T02:19:57.828Z,12.10
2019-05-30T02:20:57.813Z,12.04
2019-05-30T02:21:57.831Z,11.95
2019-05-30T02:22:57.797Z,12.10
2019-05-30T02:23:57.782Z,12.07
2019-05-30T02:24:57.763Z,12.20
2019-05-30T02:25:57.767Z,12.03
2019-05-30T02:26:57.745Z,12.06
2019-05-30T02:27:57.733Z,11.97
2019-05-30T02:28:57.739Z,11.84
2019-05-30T02:29:57.740Z,11.87
2019-05-30T02:30:57.712Z,12.02
2019-05-30T02:31:57.724Z,11.94
2019-05-30T02:32:57.689Z,12.09
2019-05-30T02:33:57.703Z,12.15
2019-05-30T02:34:57.702Z,12.15
2019-05-30T02:35:57.684Z,12.00
2019-05-30T02:36:57.650Z,12.02
2019-05-30T02:37:57.659Z,12.04
2019-05-30T02:38:57.637Z,12.12
2019-05-30T02:40:02.468Z,12.10
2019-05-30T02:40:58.604Z,12.13
2019-05-30T02:41:57.592Z,12.21
2019-05-30T02:42:57.583Z,12.15
2019-05-30T02:43:57.598Z,12.17
2019-05-30T02:44:57.556Z,12.12
2019-05-30T02:45:57.549Z,12.18
2019-05-30T02:46:57.546Z,12.27
2019-05-30T02:47:57.539Z,12.29
2019-05-30T02:48:59.587Z,12.21
2019-05-30T02:49:57.513Z,12.10
2019-05-30T02:50:57.525Z,12.18
2019-05-30T02:51:57.488Z,12.18
2019-05-30T02:52:57.476Z,12.04
2019-05-30T02:53:57.497Z,12.13
2019-05-30T02:54:57.450Z,12.13
2019-05-30T02:55:57.429Z,12.09
2019-05-30T02:56:57.422Z,12.06
2019-05-30T02:57:57.418Z,11.88
2019-05-30T02:58:57.411Z,11.86
2019-05-30T02:59:57.421Z,11.77
2019-05-30T03:00:57.397Z,11.81
2019-05-30T03:02:01.979Z,11.84
2019-05-30T03:02:58.378Z,11.88
2019-05-30T03:03:57.383Z,11.95
2019-05-30T03:04:57.338Z,12.02
2019-05-30T03:05:57.360Z,11.95
2019-05-30T03:06:57.318Z,11.75
2019-05-30T03:07:57.306Z,11.70
2019-05-30T03:08:57.299Z,11.69
2019-05-30T03:09:57.287Z,11.69
2019-05-30T03:10:57.289Z,11.55
2019-05-30T03:11:57.284Z,11.55
2019-05-30T03:12:57.245Z,11.48
2019-05-30T03:13:57.234Z,11.44
2019-05-30T03:14:57.235Z,11.50
2019-05-30T03:15:57.221Z,11.47
2019-05-30T03:16:57.267Z,11.47
2019-05-30T03:17:57.224Z,11.30
2019-05-30T03:18:57.184Z,11.35
2019-05-30T03:19:57.173Z,11.51
2019-05-30T03:20:57.177Z,11.51
2019-05-30T03:21:57.153Z,11.69
2019-05-30T03:22:57.153Z,11.75
2019-05-30T03:23:57.121Z,11.72
2019-05-30T03:24:57.117Z,11.65
2019-05-30T03:25:57.116Z,11.65
2019-05-30T03:26:57.114Z,11.69
2019-05-30T03:27:57.120Z,11.69
2019-05-30T03:28:57.080Z,11.68
2019-05-30T03:29:57.063Z,11.45
2019-05-30T03:30:57.051Z,11.45
2019-05-30T03:31:57.043Z,11.33
2019-05-30T03:33:07.412Z,11.25
2019-05-30T03:33:58.009Z,11.19
2019-05-30T03:34:57.030Z,11.18
2019-05-30T03:35:56.993Z,11.18
2019-05-30T03:36:56.985Z,11.40
2019-05-30T03:37:56.995Z,11.44
2019-05-30T03:38:56.961Z,11.37
2019-05-30T03:39:56.958Z,11.47
2019-05-30T03:40:56.967Z,11.51
2019-05-30T03:41:56.929Z,11.40
2019-05-30T03:42:56.917Z,11.27
2019-05-30T03:43:56.902Z,11.26
2019-05-30T03:44:56.895Z,11.25
2019-05-30T03:45:56.906Z,11.18
2019-05-30T03:46:56.877Z,11.30
2019-05-30T03:47:56.862Z,11.22
2019-05-30T03:48:56.867Z,11.23
2019-05-30T03:49:56.836Z,11.33
2019-05-30T03:50:56.852Z,11.35
2019-05-30T03:51:56.841Z,11.40
2019-05-30T03:52:56.806Z,11.45
2019-05-30T03:53:56.817Z,11.32
2019-05-30T03:54:56.811Z,11.23
2019-05-30T03:55:56.778Z,11.37
2019-05-30T03:56:56.794Z,11.43
2019-05-30T03:57:56.761Z,11.40
2019-05-30T03:58:56.742Z,11.37
2019-05-30T03:59:56.727Z,11.45
2019-05-30T04:00:56.721Z,11.51
2019-05-30T04:01:56.709Z,11.54
2019-05-30T04:02:58.883Z,11.51
2019-05-30T04:03:56.686Z,11.41
2019-05-30T04:04:56.676Z,11.35
2019-05-30T04:05:56.677Z,11.40
2019-05-30T04:06:56.669Z,11.43
2019-05-30T04:07:56.644Z,11.51
2019-05-30T04:08:56.639Z,11.54
2019-05-30T04:09:56.617Z,11.45
2019-05-30T04:10:56.639Z,11.47
2019-05-30T04:11:56.621Z,11.54
2019-05-30T04:12:56.589Z,11.55
2019-05-30T04:13:56.585Z,11.55
2019-05-30T04:14:56.576Z,11.63
2019-05-30T04:15:56.555Z,11.72
2019-05-30T04:16:56.548Z,11.68
2019-05-30T04:17:56.532Z,11.72
2019-05-30T04:18:56.659Z,11.77
2019-05-30T04:19:56.579Z,11.70
2019-05-30T04:20:56.497Z,11.70
2019-05-30T04:21:56.483Z,11.70
2019-05-30T04:22:56.477Z,11.63
2019-05-30T04:23:56.472Z,11.60
2019-05-30T04:24:56.461Z,11.45
2019-05-30T04:26:00.363Z,11.45
2019-05-30T04:26:56.431Z,11.50
2019-05-30T04:27:56.415Z,11.41
2019-05-30T04:28:56.417Z,11.48
2019-05-30T04:29:56.407Z,11.33
2019-05-30T04:30:56.390Z,11.47
2019-05-30T04:31:56.376Z,11.41
2019-05-30T04:33:16.068Z,11.37
2019-05-30T04:33:57.355Z,11.41
2019-05-30T04:34:56.348Z,11.44
2019-05-30T04:35:56.329Z,11.43
2019-05-30T04:36:56.322Z,11.47
2019-05-30T04:37:56.311Z,11.55
2019-05-30T04:38:56.292Z,11.60
2019-05-30T04:39:56.296Z,11.50
2019-05-30T04:40:56.279Z,11.47
2019-05-30T04:41:56.267Z,11.51
2019-05-30T04:42:56.274Z,11.40
2019-05-30T04:43:56.243Z,11.41
2019-05-30T04:44:56.241Z,11.44
2019-05-30T04:45:56.230Z,11.54
2019-05-30T04:46:56.204Z,11.57
2019-05-30T04:47:56.203Z,11.70
2019-05-30T04:48:56.187Z,11.69
2019-05-30T04:49:56.183Z,11.68
2019-05-30T04:50:56.161Z,11.72
2019-05-30T04:51:56.158Z,11.65
2019-05-30T04:52:56.173Z,11.72
2019-05-30T04:53:56.164Z,11.63
2019-05-30T04:54:56.122Z,11.66
2019-05-30T04:55:56.112Z,11.72
2019-05-30T04:56:56.111Z,11.70
2019-05-30T04:57:56.089Z,11.75
2019-05-30T04:58:56.087Z,11.80
2019-05-30T04:59:56.061Z,11.88
2019-05-30T05:00:56.052Z,11.88
2019-05-30T05:01:56.056Z,11.91
2019-05-30T05:02:56.046Z,11.99
2019-05-30T05:03:56.022Z,12.07
2019-05-30T05:04:56.010Z,12.12
2019-05-30T05:05:56.035Z,12.07
2019-05-30T05:06:55.994Z,12.06
2019-05-30T05:07:55.984Z,12.09
2019-05-30T05:08:55.965Z,12.04
2019-05-30T05:09:55.966Z,12.12
2019-05-30T05:10:55.948Z,12.21
2019-05-30T05:11:55.928Z,12.21
2019-05-30T05:12:55.921Z,12.28
2019-05-30T05:13:55.939Z,12.29
2019-05-30T05:14:55.901Z,12.37
2019-05-30T05:15:55.901Z,12.36
2019-05-30T05:16:55.871Z,12.35
2019-05-30T05:17:55.876Z,12.36
2019-05-30T05:18:55.875Z,12.39
2019-05-30T05:19:55.861Z,12.40
2019-05-30T05:20:55.837Z,12.36
2019-05-30T05:21:55.841Z,12.37
2019-05-30T05:22:55.814Z,12.35
2019-05-30T05:23:55.802Z,12.35
2019-05-30T05:24:55.792Z,12.54
2019-05-30T05:26:00.989Z,12.49
2019-05-30T05:26:56.778Z,12.49
2019-05-30T05:27:55.778Z,12.50
2019-05-30T05:28:55.742Z,12.49
2019-05-30T05:29:55.737Z,12.61
2019-05-30T05:30:55.729Z,12.57
2019-05-30T05:31:55.703Z,12.61
2019-05-30T05:32:55.702Z,12.60
2019-05-30T05:33:57.345Z,12.57
2019-05-30T05:34:55.670Z,12.65
2019-05-30T05:35:55.660Z,12.70
2019-05-30T05:36:55.673Z,12.72
2019-05-30T05:37:55.649Z,12.75
2019-05-30T05:38:55.649Z,12.80
2019-05-30T05:39:55.614Z,12.85
2019-05-30T05:40:55.612Z,12.82
2019-05-30T05:41:55.609Z,12.87
2019-05-30T05:42:55.588Z,12.98
2019-05-30T05:43:55.612Z,12.97
2019-05-30T05:44:55.586Z,13.09
2019-05-30T05:45:55.552Z,13.05
2019-05-30T05:46:55.540Z,13.15
2019-05-30T05:47:55.547Z,13.15
2019-05-30T05:48:55.514Z,13.15
2019-05-30T05:49:55.646Z,13.22
2019-05-30T05:50:55.519Z,13.31
2019-05-30T05:51:55.482Z,13.33
2019-05-30T05:52:55.498Z,13.39
2019-05-30T05:53:55.473Z,13.46
2019-05-30T05:54:55.457Z,13.42
2019-05-30T05:55:55.451Z,13.57
2019-05-30T05:56:55.431Z,13.53
2019-05-30T05:57:55.478Z,13.67
2019-05-30T05:58:55.459Z,13.54
2019-05-30T05:59:55.397Z,13.56
2019-05-30T06:00:56.427Z,13.57
2019-05-30T06:01:55.391Z,13.59
2019-05-30T06:02:55.357Z,13.57
2019-05-30T06:03:55.358Z,13.67
2019-05-30T06:04:55.346Z,13.65
2019-05-30T06:05:55.356Z,13.62
2019-05-30T06:06:55.342Z,13.65
2019-05-30T06:07:55.347Z,13.70
2019-05-30T06:08:55.302Z,13.75
2019-05-30T06:09:55.299Z,13.72
2019-05-30T06:10:55.289Z,13.75
2019-05-30T06:11:55.257Z,13.81
2019-05-30T06:12:55.307Z,13.85
2019-05-30T06:13:55.238Z,13.85
2019-05-30T06:14:55.225Z,13.85
2019-05-30T06:15:55.225Z,13.89
2019-05-30T06:16:56.001Z,13.87
2019-05-30T06:17:55.207Z,13.99
2019-05-30T06:18:55.175Z,14.05
2019-05-30T06:19:55.167Z,14.17
2019-05-30T06:20:55.161Z,14.22
2019-05-30T06:21:55.153Z,14.25
2019-05-30T06:22:55.141Z,14.33
2019-05-30T06:23:55.135Z,14.37
2019-05-30T06:24:55.113Z,14.47
2019-05-30T06:25:55.095Z,14.47
2019-05-30T06:26:55.103Z,14.59
2019-05-30T06:27:55.095Z,14.60
2019-05-30T06:28:55.077Z,14.62
2019-05-30T06:29:55.058Z,14.66
2019-05-30T06:30:58.736Z,14.66
2019-05-30T06:31:55.039Z,14.73
2019-05-30T06:32:55.057Z,14.77
2019-05-30T06:33:55.073Z,14.68
2019-05-30T06:34:55.041Z,14.63
2019-05-30T06:35:54.985Z,14.66
2019-05-30T06:36:54.973Z,14.66
2019-05-30T06:37:54.970Z,14.77
2019-05-30T06:38:54.995Z,14.79
2019-05-30T06:39:54.962Z,14.91
2019-05-30T06:40:54.956Z,14.86
2019-05-30T06:41:54.922Z,14.97
2019-05-30T06:42:54.903Z,15.02
2019-05-30T06:43:54.918Z,15.04
2019-05-30T06:44:54.907Z,15.04
2019-05-30T06:45:54.884Z,14.92
2019-05-30T06:46:54.877Z,14.89
2019-05-30T06:47:54.852Z,14.99
2019-05-30T06:48:54.847Z,14.99
2019-05-30T06:49:54.834Z,15.07
2019-05-30T06:50:54.855Z,15.02
2019-05-30T06:51:54.919Z,15.29
2019-05-30T06:52:54.795Z,15.57
2019-05-30T06:53:54.790Z,15.82
2019-05-30T06:54:54.777Z,16.26
2019-05-30T06:55:54.783Z,16.79
2019-05-30T06:56:54.771Z,17.44
2019-05-30T06:57:54.751Z,18.23
2019-05-30T06:58:54.734Z,18.53
2019-05-30T06:59:54.727Z,18.53
2019-05-30T07:00:54.755Z,18.37
2019-05-30T07:01:54.724Z,18.10
2019-05-30T07:02:54.795Z,17.87
2019-05-30T07:03:54.834Z,17.71
2019-05-30T07:04:55.279Z,17.44
2019-05-30T07:05:55.311Z,17.24
2019-05-30T07:06:54.950Z,17.05
2019-05-30T07:07:54.721Z,16.89
2019-05-30T07:08:54.644Z,16.87
2019-05-30T07:09:54.608Z,16.78
2019-05-30T07:10:54.603Z,16.74
2019-05-30T07:11:54.602Z,16.68
2019-05-30T07:12:54.569Z,16.69
2019-05-30T07:13:54.579Z,16.69
2019-05-30T07:14:54.545Z,16.72
2019-05-30T07:15:54.538Z,16.71
2019-05-30T07:16:54.534Z,16.74
2019-05-30T07:17:54.525Z,16.71
2019-05-30T07:18:54.562Z,16.78
2019-05-30T07:19:54.512Z,16.74
2019-05-30T07:20:54.488Z,16.69
2019-05-30T07:21:54.470Z,16.78
2019-05-30T07:22:54.471Z,16.83
2019-05-30T07:23:54.570Z,16.75
2019-05-30T07:24:54.511Z,16.87
2019-05-30T07:25:54.418Z,16.87
2019-05-30T07:26:54.460Z,16.84
2019-05-30T07:27:54.409Z,16.74
2019-05-30T07:28:54.406Z,16.71
2019-05-30T07:29:54.419Z,16.76
2019-05-30T07:30:54.450Z,16.75
2019-05-30T07:31:54.451Z,16.79
2019-05-30T07:32:54.351Z,16.76
2019-05-30T07:33:54.355Z,16.78
2019-05-30T07:35:06.062Z,16.76
2019-05-30T07:35:55.303Z,16.84
2019-05-30T07:36:54.355Z,16.83
2019-05-30T07:37:54.314Z,16.90
2019-05-30T07:38:54.294Z,17.02
2019-05-30T07:39:54.294Z,17.08
2019-05-30T07:40:54.274Z,17.14
2019-05-30T07:42:05.723Z,17.08
2019-05-30T07:42:55.283Z,17.24
2019-05-30T07:43:54.239Z,17.20
2019-05-30T07:44:54.223Z,17.22
2019-05-30T07:45:58.159Z,17.24
2019-05-30T07:46:54.245Z,17.22
2019-05-30T07:47:54.211Z,17.30
2019-05-30T07:48:54.158Z,17.38
2019-05-30T07:49:54.183Z,17.33
2019-05-30T07:50:54.152Z,17.45
2019-05-30T07:51:54.158Z,17.48
2019-05-30T07:52:54.150Z,17.46
2019-05-30T07:53:54.108Z,17.56
2019-05-30T07:54:54.116Z,17.52
2019-05-30T07:55:54.087Z,17.60
2019-05-30T07:56:54.081Z,17.59
2019-05-30T07:57:54.081Z,17.63
2019-05-30T07:58:54.074Z,17.70
2019-05-30T07:59:54.077Z,17.72
2019-05-30T08:00:54.075Z,17.82
2019-05-30T08:01:54.030Z,17.86
2019-05-30T08:02:54.023Z,17.85
2019-05-30T08:03:54.004Z,17.94
2019-05-30T08:04:54.003Z,17.98
2019-05-30T08:05:53.999Z,17.86
2019-05-30T08:06:53.967Z,18.01
2019-05-30T08:07:53.954Z,17.95
2019-05-30T08:08:53.962Z,18.01
2019-05-30T08:09:53.987Z,17.97
2019-05-30T08:11:08.449Z,18.11
2019-05-30T08:11:54.947Z,18.10
2019-05-30T08:12:53.919Z,18.11
2019-05-30T08:13:53.903Z,18.20
2019-05-30T08:14:53.893Z,18.19
2019-05-30T08:15:53.884Z,18.28
2019-05-30T08:16:53.843Z,18.26
2019-05-30T08:17:53.836Z,18.37
2019-05-30T08:18:53.859Z,18.40
2019-05-30T08:20:00.983Z,18.34
2019-05-30T08:21:36.355Z,18.40
2019-05-30T08:22:36.230Z,18.45
2019-05-30T08:23:36.315Z,18.37
2019-05-30T08:24:36.488Z,18.41
2019-05-30T08:25:36.578Z,18.47
2019-05-30T08:26:36.404Z,18.45
2019-05-30T08:27:36.486Z,18.41
2019-05-30T08:28:36.463Z,18.45
2019-05-30T08:29:36.476Z,18.49
2019-05-30T08:30:36.657Z,18.40
2019-05-30T08:31:36.866Z,18.55
2019-05-30T08:32:36.953Z,18.53
2019-05-30T08:33:35.850Z,18.47
2019-05-30T08:34:36.675Z,18.53
2019-05-30T08:35:45.400Z,18.53
2019-05-30T08:36:37.086Z,18.60
2019-05-30T08:37:37.158Z,18.71
2019-05-30T08:38:35.779Z,18.58
2019-05-30T08:39:35.786Z,18.60
2019-05-30T08:40:35.784Z,18.70
2019-05-30T08:41:35.742Z,18.68
2019-05-30T08:42:35.736Z,18.75
2019-05-30T08:43:35.760Z,18.75
2019-05-30T08:44:35.942Z,18.88
2019-05-30T08:45:36.140Z,18.86
2019-05-30T08:46:35.859Z,18.90
2019-05-30T08:47:36.014Z,18.88
2019-05-30T08:48:36.194Z,18.95
2019-05-30T08:49:36.177Z,18.99
2019-05-30T08:50:36.818Z,18.92
2019-05-30T08:51:36.239Z,18.98
2019-05-30T08:52:36.460Z,18.98
2019-05-30T08:53:36.398Z,18.96
2019-05-30T08:54:36.443Z,18.95
2019-05-30T08:55:36.420Z,18.90
2019-05-30T08:56:36.499Z,18.90
2019-05-30T08:57:36.655Z,18.93
2019-05-30T08:58:36.707Z,19.00
2019-05-30T08:59:36.676Z,18.98
2019-05-30T09:00:35.554Z,19.16
2019-05-30T09:01:35.774Z,19.11
2019-05-30T09:02:36.558Z,19.08
2019-05-30T09:03:35.837Z,19.12
2019-05-30T09:04:35.733Z,19.09
2019-05-30T09:05:35.963Z,19.11
2019-05-30T09:06:35.825Z,19.11
2019-05-30T09:07:36.434Z,19.14
2019-05-30T09:08:35.974Z,19.19
2019-05-30T09:09:36.114Z,19.26
2019-05-30T09:10:35.966Z,19.26
2019-05-30T09:11:35.876Z,19.24
2019-05-30T09:12:37.583Z,19.40
2019-05-30T09:13:35.988Z,19.45
2019-05-30T09:14:37.359Z,19.48
2019-05-30T09:15:37.454Z,19.47
2019-05-30T09:16:35.357Z,19.49
2019-05-30T09:17:35.360Z,19.41
2019-05-30T09:18:36.833Z,19.51
2019-05-30T09:19:35.344Z,19.45
2019-05-30T09:20:35.307Z,19.49
2019-05-30T09:21:35.341Z,19.51
2019-05-30T09:22:35.297Z,19.63
2019-05-30T09:23:35.334Z,19.62
2019-05-30T09:24:35.280Z,19.66
2019-05-30T09:25:35.257Z,19.69
2019-05-30T09:26:35.244Z,19.67
2019-05-30T09:27:35.238Z,19.66
2019-05-30T09:28:35.214Z,19.63
2019-05-30T09:29:35.259Z,19.69
2019-05-30T09:30:35.233Z,19.64
2019-05-30T09:31:35.219Z,19.67
2019-05-30T09:32:35.175Z,19.73
2019-05-30T09:33:35.165Z,19.71
2019-05-30T09:34:35.164Z,19.79
2019-05-30T09:35:35.170Z,19.81
2019-05-30T09:36:35.157Z,19.92
2019-05-30T09:37:35.164Z,19.95
2019-05-30T09:38:35.107Z,19.99
2019-05-30T09:39:35.105Z,19.99
2019-05-30T09:40:35.096Z,20.10
2019-05-30T09:41:35.096Z,20.03
2019-05-30T09:42:35.078Z,20.11
2019-05-30T09:43:35.101Z,20.06
2019-05-30T09:44:36.937Z,20.14
2019-05-30T09:45:35.043Z,20.22
2019-05-30T09:46:35.040Z,20.13
2019-05-30T09:47:35.018Z,20.10
2019-05-30T09:48:35.085Z,20.16
2019-05-30T09:49:35.061Z,20.02
2019-05-30T09:50:34.999Z,20.04
2019-05-30T09:51:34.983Z,20.04
2019-05-30T09:52:34.963Z,20.13
2019-05-30T09:53:34.969Z,20.16
2019-05-30T09:54:34.933Z,20.14
2019-05-30T09:55:34.929Z,20.16
2019-05-30T09:56:34.927Z,20.28
2019-05-30T09:57:34.899Z,20.26
2019-05-30T09:58:34.893Z,20.37
2019-05-30T09:59:34.901Z,20.29
2019-05-30T10:00:34.874Z,20.31
2019-05-30T10:01:34.864Z,20.37
2019-05-30T10:02:34.882Z,20.39
2019-05-30T10:03:34.845Z,20.34
2019-05-30T10:04:34.881Z,20.41
2019-05-30T10:05:34.828Z,20.59
2019-05-30T10:06:34.815Z,20.56
2019-05-30T10:07:34.818Z,20.50
2019-05-30T10:08:34.793Z,20.34
2019-05-30T10:09:34.792Z,20.36
2019-05-30T10:10:34.767Z,20.26
2019-05-30T10:11:34.784Z,20.37
2019-05-30T10:12:34.797Z,20.52
2019-05-30T10:13:34.733Z,20.59
2019-05-30T10:14:34.732Z,20.52
2019-05-30T10:15:34.710Z,20.59
2019-05-30T10:16:34.715Z,20.65
2019-05-30T10:17:34.687Z,20.80
2019-05-30T10:18:34.688Z,20.72
2019-05-30T10:19:34.662Z,20.82
2019-05-30T10:20:34.698Z,20.72
2019-05-30T10:21:34.644Z,20.82
2019-05-30T10:22:34.643Z,20.88
2019-05-30T10:23:34.620Z,20.90
2019-05-30T10:24:34.613Z,21.02
2019-05-30T10:25:34.599Z,21.14
2019-05-30T10:26:34.583Z,21.15
2019-05-30T10:27:34.573Z,21.24
2019-05-30T10:28:34.576Z,21.32
2019-05-30T10:29:34.566Z,21.25
2019-05-30T10:30:34.554Z,21.24
2019-05-30T10:31:34.532Z,21.27
2019-05-30T10:32:34.522Z,21.22
2019-05-30T10:33:34.523Z,21.17
2019-05-30T10:34:34.502Z,21.20
2019-05-30T10:35:34.484Z,21.32
2019-05-30T10:36:43.749Z,21.25
2019-05-30T10:37:35.484Z,21.50
2019-05-30T10:38:34.456Z,21.70
2019-05-30T10:39:34.460Z,21.95
2019-05-30T10:40:34.426Z,22.02
2019-05-30T10:41:34.435Z,21.96
2019-05-30T10:42:34.407Z,21.83
2019-05-30T10:43:34.400Z,21.83
2019-05-30T10:44:34.402Z,21.88
2019-05-30T10:45:34.379Z,21.82
2019-05-30T10:46:34.393Z,21.75
2019-05-30T10:47:34.350Z,21.79
2019-05-30T10:48:34.344Z,21.80
2019-05-30T10:49:35.307Z,21.92
2019-05-30T10:50:34.333Z,22.14
2019-05-30T10:51:34.306Z,22.60
2019-05-30T10:52:34.301Z,23.28
2019-05-30T10:53:37.452Z,24.03
2019-05-30T10:54:34.284Z,24.98
2019-05-30T10:55:34.269Z,25.70
2019-05-30T10:56:34.260Z,26.41
2019-05-30T10:57:34.251Z,26.77
2019-05-30T10:58:34.234Z,27.15
2019-05-30T10:59:34.221Z,27.36
2019-05-30T11:00:34.212Z,27.60
2019-05-30T11:01:34.205Z,27.86
2019-05-30T11:02:34.193Z,27.77
2019-05-30T11:03:34.234Z,27.75
2019-05-30T11:04:34.174Z,27.85
2019-05-30T11:05:34.155Z,28.00
2019-05-30T11:06:34.770Z,27.95
2019-05-30T11:07:34.146Z,28.01
2019-05-30T11:08:34.122Z,28.11
2019-05-30T11:09:34.126Z,28.10
2019-05-30T11:10:34.103Z,28.08
2019-05-30T11:11:34.091Z,28.14
2019-05-30T11:12:34.081Z,28.32
2019-05-30T11:13:34.078Z,28.57
2019-05-30T11:14:34.059Z,28.82
2019-05-30T11:15:34.055Z,28.96
2019-05-30T11:16:34.043Z,29.31
2019-05-30T11:17:34.034Z,29.53
2019-05-30T11:18:34.027Z,29.39
2019-05-30T11:19:34.027Z,29.10
2019-05-30T11:20:33.993Z,28.89
2019-05-30T11:21:33.984Z,28.33
2019-05-30T11:22:33.981Z,28.10
2019-05-30T11:23:33.973Z,27.95
2019-05-30T11:24:33.952Z,28.01
2019-05-30T11:25:33.939Z,28.11
2019-05-30T11:26:33.930Z,28.01
2019-05-30T11:27:33.953Z,27.93
2019-05-30T11:28:33.930Z,27.83
2019-05-30T11:29:33.898Z,27.59
2019-05-30T11:30:33.890Z,27.51
2019-05-30T11:31:33.875Z,27.42
2019-05-30T11:32:33.896Z,27.07
2019-05-30T11:33:33.854Z,26.85
2019-05-30T11:34:33.841Z,26.93
2019-05-30T11:35:33.836Z,26.89
2019-05-30T11:36:33.818Z,26.77
2019-05-30T11:37:33.810Z,26.75
2019-05-30T11:38:33.863Z,26.62
2019-05-30T11:39:33.800Z,26.66
2019-05-30T11:40:33.783Z,26.43
2019-05-30T11:41:33.783Z,26.38
2019-05-30T11:42:33.772Z,26.38
2019-05-30T11:43:33.752Z,26.13
2019-05-30T11:44:33.729Z,26.09
2019-05-30T11:45:33.723Z,26.02
2019-05-30T11:46:33.713Z,26.07
2019-05-30T11:47:33.693Z,26.26
2019-05-30T11:48:33.692Z,26.36
2019-05-30T11:49:33.682Z,26.62
2019-05-30T11:50:33.668Z,26.63
2019-05-30T11:51:33.655Z,26.68
2019-05-30T11:52:33.647Z,26.71
2019-05-30T11:53:33.657Z,26.68
2019-05-30T11:54:33.622Z,26.83
2019-05-30T11:55:33.623Z,26.84
2019-05-30T11:56:33.621Z,26.80
2019-05-30T11:57:33.612Z,26.75
2019-05-30T11:58:33.586Z,26.71
2019-05-30T11:59:33.586Z,26.63
2019-05-30T12:00:33.564Z,26.58
2019-05-30T12:01:33.544Z,26.78
2019-05-30T12:02:33.539Z,26.90
2019-05-30T12:03:33.529Z,26.74
2019-05-30T12:04:33.523Z,26.75
2019-05-30T12:05:33.514Z,26.65
2019-05-30T12:06:33.502Z,26.34
2019-05-30T12:07:36.677Z,26.03
2019-05-30T12:08:33.478Z,25.48
2019-05-30T12:09:33.464Z,25.32
2019-05-30T12:10:33.451Z,25.21
2019-05-30T12:11:33.448Z,25.03
2019-05-30T12:12:33.458Z,24.85
2019-05-30T12:13:33.422Z,24.73
2019-05-30T12:14:33.414Z,24.68
2019-05-30T12:15:33.400Z,24.58
2019-05-30T12:16:33.402Z,24.45
2019-05-30T12:17:33.382Z,24.35
2019-05-30T12:18:33.372Z,24.39
2019-05-30T12:19:33.354Z,24.26
2019-05-30T12:20:33.351Z,24.17
2019-05-30T12:21:33.334Z,24.14
2019-05-30T12:22:33.320Z,24.13
2019-05-30T12:23:33.310Z,24.16
2019-05-30T12:24:33.298Z,24.23
2019-05-30T12:25:33.360Z,24.28
2019-05-30T12:26:34.039Z,24.35
2019-05-30T12:27:33.278Z,24.26
2019-05-30T12:28:33.250Z,24.29
2019-05-30T12:29:33.241Z,24.35
2019-05-30T12:30:33.232Z,24.45
2019-05-30T12:31:33.230Z,24.42
2019-05-30T12:32:33.243Z,24.48
2019-05-30T12:33:33.209Z,24.47
2019-05-30T12:34:33.185Z,24.45
2019-05-30T12:35:33.195Z,24.45
2019-05-30T12:36:33.170Z,24.42
2019-05-30T12:37:33.151Z,24.51
2019-05-30T12:38:33.152Z,24.51
2019-05-30T12:39:33.141Z,24.43
2019-05-30T12:40:33.135Z,24.55
2019-05-30T12:41:33.128Z,24.50
2019-05-30T12:42:33.096Z,24.51
2019-05-30T12:43:33.097Z,24.51
2019-05-30T12:44:33.082Z,24.40
2019-05-30T12:45:33.072Z,24.43
2019-05-30T12:46:33.122Z,24.23
2019-05-30T12:47:33.050Z,24.36
2019-05-30T12:48:33.033Z,24.24
2019-05-30T12:49:33.018Z,24.18
2019-05-30T12:50:33.010Z,24.29
2019-05-30T12:51:32.998Z,24.21
2019-05-30T12:52:33.002Z,24.33
2019-05-30T12:53:32.978Z,24.35
2019-05-30T12:54:32.970Z,24.32